sensor_id;sensor_type;location;lat;lon;timestamp;P1;durP1;ratioP1;P2;durP2;ratioP2
48945;SDS011;34999;50.940;3.998;2022-09-12T00:01:21;10.87;;;9.47;;
48945;SDS011;34999;50.940;3.998;2022-09-12T00:03:52;10.37;;;9.37;;
48945;SDS011;34999;50.940;3.998;2022-09-12T00:06:24;11.23;;;9.87;;
48945;SDS011;34999;50.940;3.998;2022-09-12T00:08:54;12.70;;;10.83;;
48945;SDS011;34999;50.940;3.998;2022-09-12T00:11:24;13.43;;;10.60;;
48945;SDS011;34999;50.940;3.998;2022-09-12T00:13:54;12.67;;;11.03;;
48945;SDS011;34999;50.940;3.998;2022-09-12T00:16:25;16.43;;;12.47;;
48945;SDS011;34999;50.940;3.998;2022-09-12T00:18:54;13.57;;;12.27;;
48945;SDS011;34999;50.940;3.998;2022-09-12T00:21:23;15.97;;;13.00;;
48945;SDS011;34999;50.940;3.998;2022-09-12T00:23:52;15.87;;;12.60;;
48945;SDS011;34999;50.940;3.998;2022-09-12T00:26:20;17.73;;;12.87;;
48945;SDS011;34999;50.940;3.998;2022-09-12T00:28:49;14.97;;;13.37;;
48945;SDS011;34999;50.940;3.998;2022-09-12T00:31:18;15.90;;;13.43;;
48945;SDS011;34999;50.940;3.998;2022-09-12T00:33:51;15.60;;;13.30;;
48945;SDS011;34999;50.940;3.998;2022-09-12T00:36:22;16.50;;;13.73;;
48945;SDS011;34999;50.940;3.998;2022-09-12T00:38:52;15.63;;;13.40;;
48945;SDS011;34999;50.940;3.998;2022-09-12T00:41:21;19.77;;;14.23;;
48945;SDS011;34999;50.940;3.998;2022-09-12T00:43:57;19.43;;;15.10;;
48945;SDS011;34999;50.940;3.998;2022-09-12T00:46:29;18.80;;;14.27;;
48945;SDS011;34999;50.940;3.998;2022-09-12T00:49:04;20.33;;;13.27;;
48945;SDS011;34999;50.940;3.998;2022-09-12T00:51:38;16.43;;;13.57;;
48945;SDS011;34999;50.940;3.998;2022-09-12T00:54:13;17.53;;;14.80;;
48945;SDS011;34999;50.940;3.998;2022-09-12T00:56:45;16.73;;;14.20;;
48945;SDS011;34999;50.940;3.998;2022-09-12T00:59:17;18.60;;;13.83;;
48945;SDS011;34999;50.940;3.998;2022-09-12T01:01:48;18.37;;;13.77;;
48945;SDS011;34999;50.940;3.998;2022-09-12T01:04:20;16.60;;;13.97;;
48945;SDS011;34999;50.940;3.998;2022-09-12T01:06:53;17.83;;;13.77;;
48945;SDS011;34999;50.940;3.998;2022-09-12T01:09:24;16.87;;;13.90;;
48945;SDS011;34999;50.940;3.998;2022-09-12T01:11:52;21.83;;;14.43;;
48945;SDS011;34999;50.940;3.998;2022-09-12T01:14:21;20.17;;;13.57;;
48945;SDS011;34999;50.940;3.998;2022-09-12T01:16:50;19.93;;;14.13;;
48945;SDS011;34999;50.940;3.998;2022-09-12T01:19:28;17.80;;;13.40;;
48945;SDS011;34999;50.940;3.998;2022-09-12T01:22:26;15.97;;;12.90;;
48945;SDS011;34999;50.940;3.998;2022-09-12T01:25:09;19.13;;;12.50;;
48945;SDS011;34999;50.940;3.998;2022-09-12T01:27:53;17.93;;;12.53;;
48945;SDS011;34999;50.940;3.998;2022-09-12T01:30:44;19.40;;;13.50;;
48945;SDS011;34999;50.940;3.998;2022-09-12T01:33:23;14.97;;;12.80;;
48945;SDS011;34999;50.940;3.998;2022-09-12T01:36:04;18.27;;;12.50;;
48945;SDS011;34999;50.940;3.998;2022-09-12T01:38:46;15.87;;;12.97;;
48945;SDS011;34999;50.940;3.998;2022-09-12T01:41:19;18.90;;;14.97;;
48945;SDS011;34999;50.940;3.998;2022-09-12T01:43:57;18.47;;;13.97;;
48945;SDS011;34999;50.940;3.998;2022-09-12T01:46:34;17.70;;;14.23;;
48945;SDS011;34999;50.940;3.998;2022-09-12T01:49:11;19.47;;;14.03;;
48945;SDS011;34999;50.940;3.998;2022-09-12T01:51:46;16.23;;;13.30;;
48945;SDS011;34999;50.940;3.998;2022-09-12T01:54:24;14.97;;;12.60;;
48945;SDS011;34999;50.940;3.998;2022-09-12T01:56:57;17.30;;;13.27;;
48945;SDS011;34999;50.940;3.998;2022-09-12T01:59:32;17.37;;;12.70;;
48945;SDS011;34999;50.940;3.998;2022-09-12T02:02:06;19.53;;;14.20;;
48945;SDS011;34999;50.940;3.998;2022-09-12T02:04:40;20.60;;;13.73;;
48945;SDS011;34999;50.940;3.998;2022-09-12T02:07:15;18.10;;;13.97;;
48945;SDS011;34999;50.940;3.998;2022-09-12T02:09:48;17.40;;;13.33;;
48945;SDS011;34999;50.940;3.998;2022-09-12T02:12:22;19.37;;;13.70;;
48945;SDS011;34999;50.940;3.998;2022-09-12T02:14:56;19.80;;;13.07;;
48945;SDS011;34999;50.940;3.998;2022-09-12T02:17:30;25.60;;;15.83;;
48945;SDS011;34999;50.940;3.998;2022-09-12T02:20:04;19.70;;;15.03;;
48945;SDS011;34999;50.940;3.998;2022-09-12T02:22:56;20.63;;;14.57;;
48945;SDS011;34999;50.940;3.998;2022-09-12T02:25:27;18.53;;;14.23;;
48945;SDS011;34999;50.940;3.998;2022-09-12T02:27:57;21.27;;;14.90;;
48945;SDS011;34999;50.940;3.998;2022-09-12T02:30:33;18.37;;;13.57;;
48945;SDS011;34999;50.940;3.998;2022-09-12T02:33:09;18.43;;;14.20;;
48945;SDS011;34999;50.940;3.998;2022-09-12T02:35:44;18.20;;;13.90;;
48945;SDS011;34999;50.940;3.998;2022-09-12T02:38:16;17.90;;;13.60;;
48945;SDS011;34999;50.940;3.998;2022-09-12T02:40:51;19.67;;;13.77;;
48945;SDS011;34999;50.940;3.998;2022-09-12T02:43:20;18.50;;;14.83;;
48945;SDS011;34999;50.940;3.998;2022-09-12T02:45:48;22.10;;;15.67;;
48945;SDS011;34999;50.940;3.998;2022-09-12T02:48:19;19.03;;;14.90;;
48945;SDS011;34999;50.940;3.998;2022-09-12T02:50:50;21.10;;;15.17;;
48945;SDS011;34999;50.940;3.998;2022-09-12T02:53:18;21.93;;;16.27;;
48945;SDS011;34999;50.940;3.998;2022-09-12T02:55:47;20.03;;;15.23;;
48945;SDS011;34999;50.940;3.998;2022-09-12T02:58:16;21.23;;;16.03;;
48945;SDS011;34999;50.940;3.998;2022-09-12T03:00:47;26.20;;;17.00;;
48945;SDS011;34999;50.940;3.998;2022-09-12T03:03:34;25.57;;;17.63;;
48945;SDS011;34999;50.940;3.998;2022-09-12T03:06:15;24.80;;;16.10;;
48945;SDS011;34999;50.940;3.998;2022-09-12T03:08:52;24.77;;;17.33;;
48945;SDS011;34999;50.940;3.998;2022-09-12T03:11:35;23.10;;;17.33;;
48945;SDS011;34999;50.940;3.998;2022-09-12T03:14:21;21.73;;;16.70;;
48945;SDS011;34999;50.940;3.998;2022-09-12T03:17:02;20.93;;;15.67;;
48945;SDS011;34999;50.940;3.998;2022-09-12T03:19:40;24.47;;;15.90;;
48945;SDS011;34999;50.940;3.998;2022-09-12T03:22:20;20.63;;;15.73;;
48945;SDS011;34999;50.940;3.998;2022-09-12T03:24:56;25.90;;;15.97;;
48945;SDS011;34999;50.940;3.998;2022-09-12T03:27:32;22.53;;;15.83;;
48945;SDS011;34999;50.940;3.998;2022-09-12T03:30:03;23.47;;;16.60;;
48945;SDS011;34999;50.940;3.998;2022-09-12T03:32:39;20.40;;;15.20;;
48945;SDS011;34999;50.940;3.998;2022-09-12T03:35:10;24.30;;;16.50;;
48945;SDS011;34999;50.940;3.998;2022-09-12T03:37:39;24.27;;;17.37;;
48945;SDS011;34999;50.940;3.998;2022-09-12T03:40:08;24.50;;;17.67;;
48945;SDS011;34999;50.940;3.998;2022-09-12T03:42:38;27.17;;;17.83;;
48945;SDS011;34999;50.940;3.998;2022-09-12T03:45:07;32.00;;;16.97;;
48945;SDS011;34999;50.940;3.998;2022-09-12T03:47:36;24.77;;;18.10;;
48945;SDS011;34999;50.940;3.998;2022-09-12T03:50:05;26.73;;;17.33;;
48945;SDS011;34999;50.940;3.998;2022-09-12T03:52:35;22.53;;;16.07;;
48945;SDS011;34999;50.940;3.998;2022-09-12T03:55:04;25.70;;;16.77;;
48945;SDS011;34999;50.940;3.998;2022-09-12T03:57:33;24.77;;;16.60;;
48945;SDS011;34999;50.940;3.998;2022-09-12T04:00:02;27.50;;;16.00;;
48945;SDS011;34999;50.940;3.998;2022-09-12T04:02:31;34.73;;;18.80;;
48945;SDS011;34999;50.940;3.998;2022-09-12T04:05:07;29.07;;;17.50;;
48945;SDS011;34999;50.940;3.998;2022-09-12T04:07:37;26.53;;;17.20;;
48945;SDS011;34999;50.940;3.998;2022-09-12T04:10:06;26.33;;;17.23;;
48945;SDS011;34999;50.940;3.998;2022-09-12T04:12:36;26.70;;;17.87;;
48945;SDS011;34999;50.940;3.998;2022-09-12T04:15:05;28.77;;;18.57;;
48945;SDS011;34999;50.940;3.998;2022-09-12T04:17:34;23.70;;;17.30;;
48945;SDS011;34999;50.940;3.998;2022-09-12T04:20:03;26.80;;;17.87;;
48945;SDS011;34999;50.940;3.998;2022-09-12T04:22:32;26.67;;;18.00;;
48945;SDS011;34999;50.940;3.998;2022-09-12T04:25:02;32.50;;;19.50;;
48945;SDS011;34999;50.940;3.998;2022-09-12T04:27:31;31.50;;;19.77;;
48945;SDS011;34999;50.940;3.998;2022-09-12T04:29:59;30.57;;;19.70;;
48945;SDS011;34999;50.940;3.998;2022-09-12T04:32:28;30.07;;;20.00;;
48945;SDS011;34999;50.940;3.998;2022-09-12T04:34:57;28.57;;;19.83;;
48945;SDS011;34999;50.940;3.998;2022-09-12T04:37:26;25.80;;;17.77;;
48945;SDS011;34999;50.940;3.998;2022-09-12T04:39:54;26.50;;;17.83;;
48945;SDS011;34999;50.940;3.998;2022-09-12T04:42:24;28.77;;;18.40;;
48945;SDS011;34999;50.940;3.998;2022-09-12T04:44:53;24.97;;;16.77;;
48945;SDS011;34999;50.940;3.998;2022-09-12T04:47:21;27.17;;;16.93;;
48945;SDS011;34999;50.940;3.998;2022-09-12T04:49:49;23.43;;;15.83;;
48945;SDS011;34999;50.940;3.998;2022-09-12T04:52:18;24.43;;;16.27;;
48945;SDS011;34999;50.940;3.998;2022-09-12T04:54:46;23.10;;;15.30;;
48945;SDS011;34999;50.940;3.998;2022-09-12T04:57:14;23.57;;;15.90;;
48945;SDS011;34999;50.940;3.998;2022-09-12T04:59:44;24.83;;;17.00;;
48945;SDS011;34999;50.940;3.998;2022-09-12T05:02:12;21.00;;;15.07;;
48945;SDS011;34999;50.940;3.998;2022-09-12T05:04:41;21.60;;;15.27;;
48945;SDS011;34999;50.940;3.998;2022-09-12T05:07:09;27.63;;;16.13;;
48945;SDS011;34999;50.940;3.998;2022-09-12T05:09:37;24.33;;;16.60;;
48945;SDS011;34999;50.940;3.998;2022-09-12T05:12:06;23.83;;;16.20;;
48945;SDS011;34999;50.940;3.998;2022-09-12T05:14:35;27.80;;;16.93;;
48945;SDS011;34999;50.940;3.998;2022-09-12T05:17:04;24.73;;;16.53;;
48945;SDS011;34999;50.940;3.998;2022-09-12T05:19:32;24.37;;;17.27;;
48945;SDS011;34999;50.940;3.998;2022-09-12T05:22:01;31.33;;;17.70;;
48945;SDS011;34999;50.940;3.998;2022-09-12T05:24:30;27.83;;;18.43;;
48945;SDS011;34999;50.940;3.998;2022-09-12T05:26:59;28.27;;;18.60;;
48945;SDS011;34999;50.940;3.998;2022-09-12T05:29:28;34.83;;;19.10;;
48945;SDS011;34999;50.940;3.998;2022-09-12T05:31:56;32.17;;;18.80;;
48945;SDS011;34999;50.940;3.998;2022-09-12T05:34:26;32.40;;;19.17;;
48945;SDS011;34999;50.940;3.998;2022-09-12T05:36:55;38.23;;;19.03;;
48945;SDS011;34999;50.940;3.998;2022-09-12T05:39:24;33.03;;;19.03;;
48945;SDS011;34999;50.940;3.998;2022-09-12T05:41:54;33.17;;;20.23;;
48945;SDS011;34999;50.940;3.998;2022-09-12T05:44:22;30.60;;;18.70;;
48945;SDS011;34999;50.940;3.998;2022-09-12T05:46:51;33.80;;;20.27;;
48945;SDS011;34999;50.940;3.998;2022-09-12T05:49:19;34.73;;;21.03;;
48945;SDS011;34999;50.940;3.998;2022-09-12T05:51:49;34.43;;;21.03;;
48945;SDS011;34999;50.940;3.998;2022-09-12T05:54:18;33.27;;;21.90;;
48945;SDS011;34999;50.940;3.998;2022-09-12T05:56:47;35.93;;;21.87;;
48945;SDS011;34999;50.940;3.998;2022-09-12T05:59:16;43.27;;;22.83;;
48945;SDS011;34999;50.940;3.998;2022-09-12T06:01:46;34.07;;;21.67;;
48945;SDS011;34999;50.940;3.998;2022-09-12T06:04:15;35.63;;;22.03;;
48945;SDS011;34999;50.940;3.998;2022-09-12T06:06:44;33.10;;;21.67;;
48945;SDS011;34999;50.940;3.998;2022-09-12T06:09:14;40.10;;;21.73;;
48945;SDS011;34999;50.940;3.998;2022-09-12T06:11:45;37.37;;;22.83;;
48945;SDS011;34999;50.940;3.998;2022-09-12T06:14:15;44.83;;;22.80;;
48945;SDS011;34999;50.940;3.998;2022-09-12T06:16:45;34.53;;;22.13;;
48945;SDS011;34999;50.940;3.998;2022-09-12T06:19:14;37.53;;;21.80;;
48945;SDS011;34999;50.940;3.998;2022-09-12T06:21:44;38.57;;;21.53;;
48945;SDS011;34999;50.940;3.998;2022-09-12T06:24:14;38.83;;;23.27;;
48945;SDS011;34999;50.940;3.998;2022-09-12T06:26:43;35.30;;;22.20;;
48945;SDS011;34999;50.940;3.998;2022-09-12T06:29:12;34.30;;;22.17;;
48945;SDS011;34999;50.940;3.998;2022-09-12T06:31:41;37.17;;;23.07;;
48945;SDS011;34999;50.940;3.998;2022-09-12T06:34:11;35.77;;;22.47;;
48945;SDS011;34999;50.940;3.998;2022-09-12T06:36:41;38.10;;;22.30;;
48945;SDS011;34999;50.940;3.998;2022-09-12T06:39:12;37.63;;;21.37;;
48945;SDS011;34999;50.940;3.998;2022-09-12T06:41:43;31.77;;;19.97;;
48945;SDS011;34999;50.940;3.998;2022-09-12T06:44:13;31.03;;;20.00;;
48945;SDS011;34999;50.940;3.998;2022-09-12T06:46:43;32.50;;;19.70;;
48945;SDS011;34999;50.940;3.998;2022-09-12T06:49:11;26.27;;;18.23;;
48945;SDS011;34999;50.940;3.998;2022-09-12T06:51:40;28.63;;;17.17;;
48945;SDS011;34999;50.940;3.998;2022-09-12T06:54:10;20.73;;;16.40;;
48945;SDS011;34999;50.940;3.998;2022-09-12T06:56:42;21.77;;;15.37;;
48945;SDS011;34999;50.940;3.998;2022-09-12T06:59:13;24.57;;;15.43;;
48945;SDS011;34999;50.940;3.998;2022-09-12T07:01:42;21.47;;;14.37;;
48945;SDS011;34999;50.940;3.998;2022-09-12T07:04:10;24.83;;;14.20;;
48945;SDS011;34999;50.940;3.998;2022-09-12T07:06:39;21.03;;;14.30;;
48945;SDS011;34999;50.940;3.998;2022-09-12T07:09:10;18.50;;;13.37;;
48945;SDS011;34999;50.940;3.998;2022-09-12T07:11:42;18.53;;;12.97;;
48945;SDS011;34999;50.940;3.998;2022-09-12T07:14:15;18.90;;;13.03;;
48945;SDS011;34999;50.940;3.998;2022-09-12T07:16:44;17.93;;;12.67;;
48945;SDS011;34999;50.940;3.998;2022-09-12T07:19:12;16.43;;;12.43;;
48945;SDS011;34999;50.940;3.998;2022-09-12T07:21:40;18.03;;;12.03;;
48945;SDS011;34999;50.940;3.998;2022-09-12T07:24:08;15.17;;;11.60;;
48945;SDS011;34999;50.940;3.998;2022-09-12T07:26:37;14.03;;;11.10;;
48945;SDS011;34999;50.940;3.998;2022-09-12T07:29:11;16.47;;;11.70;;
48945;SDS011;34999;50.940;3.998;2022-09-12T07:32:02;17.07;;;11.77;;
48945;SDS011;34999;50.940;3.998;2022-09-12T07:34:31;15.40;;;11.40;;
48945;SDS011;34999;50.940;3.998;2022-09-12T07:36:59;14.60;;;9.73;;
48945;SDS011;34999;50.940;3.998;2022-09-12T07:39:27;13.47;;;9.83;;
48945;SDS011;34999;50.940;3.998;2022-09-12T07:41:56;13.73;;;10.70;;
48945;SDS011;34999;50.940;3.998;2022-09-12T07:44:27;13.47;;;10.73;;
48945;SDS011;34999;50.940;3.998;2022-09-12T07:46:55;15.47;;;11.00;;
48945;SDS011;34999;50.940;3.998;2022-09-12T07:49:23;14.50;;;9.90;;
48945;SDS011;34999;50.940;3.998;2022-09-12T07:51:51;15.40;;;10.20;;
48945;SDS011;34999;50.940;3.998;2022-09-12T07:54:20;13.97;;;10.13;;
48945;SDS011;34999;50.940;3.998;2022-09-12T07:56:48;18.23;;;10.77;;
48945;SDS011;34999;50.940;3.998;2022-09-12T07:59:17;12.13;;;9.77;;
48945;SDS011;34999;50.940;3.998;2022-09-12T08:02:08;10.93;;;9.37;;
48945;SDS011;34999;50.940;3.998;2022-09-12T08:04:42;12.13;;;9.73;;
48945;SDS011;34999;50.940;3.998;2022-09-12T08:07:11;12.90;;;9.70;;
48945;SDS011;34999;50.940;3.998;2022-09-12T08:09:40;10.97;;;8.83;;
48945;SDS011;34999;50.940;3.998;2022-09-12T08:12:08;13.63;;;9.73;;
48945;SDS011;34999;50.940;3.998;2022-09-12T08:14:36;10.87;;;9.57;;
48945;SDS011;34999;50.940;3.998;2022-09-12T08:17:09;10.83;;;8.80;;
48945;SDS011;34999;50.940;3.998;2022-09-12T08:19:38;11.93;;;9.20;;
48945;SDS011;34999;50.940;3.998;2022-09-12T08:22:06;11.17;;;8.57;;
48945;SDS011;34999;50.940;3.998;2022-09-12T08:24:35;9.20;;;8.30;;
48945;SDS011;34999;50.940;3.998;2022-09-12T08:27:04;11.50;;;8.80;;
48945;SDS011;34999;50.940;3.998;2022-09-12T08:29:33;9.70;;;8.37;;
48945;SDS011;34999;50.940;3.998;2022-09-12T08:32:02;9.43;;;8.07;;
48945;SDS011;34999;50.940;3.998;2022-09-12T08:34:31;9.23;;;8.30;;
48945;SDS011;34999;50.940;3.998;2022-09-12T08:37:00;9.63;;;7.57;;
48945;SDS011;34999;50.940;3.998;2022-09-12T08:39:29;11.17;;;7.27;;
48945;SDS011;34999;50.940;3.998;2022-09-12T08:41:59;9.20;;;6.93;;
48945;SDS011;34999;50.940;3.998;2022-09-12T08:47:24;8.47;;;7.67;;
48945;SDS011;34999;50.940;3.998;2022-09-12T08:50:02;7.90;;;6.87;;
48945;SDS011;34999;50.940;3.998;2022-09-12T08:52:38;6.00;;;5.50;;
48945;SDS011;34999;50.940;3.998;2022-09-12T08:55:17;7.27;;;6.57;;
48945;SDS011;34999;50.940;3.998;2022-09-12T08:57:54;6.77;;;6.17;;
48945;SDS011;34999;50.940;3.998;2022-09-12T09:00:23;10.73;;;7.83;;
48945;SDS011;34999;50.940;3.998;2022-09-12T09:03:03;8.30;;;5.93;;
48945;SDS011;34999;50.940;3.998;2022-09-12T09:05:47;6.70;;;6.10;;
48945;SDS011;34999;50.940;3.998;2022-09-12T09:08:24;6.63;;;5.47;;
48945;SDS011;34999;50.940;3.998;2022-09-12T09:11:12;5.47;;;4.97;;
48945;SDS011;34999;50.940;3.998;2022-09-12T09:13:58;5.40;;;4.67;;
48945;SDS011;34999;50.940;3.998;2022-09-12T09:16:51;5.63;;;5.10;;
48945;SDS011;34999;50.940;3.998;2022-09-12T09:19:23;5.03;;;4.63;;
48945;SDS011;34999;50.940;3.998;2022-09-12T09:21:57;4.90;;;4.60;;
48945;SDS011;34999;50.940;3.998;2022-09-12T09:24:39;6.53;;;4.83;;
48945;SDS011;34999;50.940;3.998;2022-09-12T09:27:11;5.67;;;4.87;;
48945;SDS011;34999;50.940;3.998;2022-09-12T09:30:11;6.53;;;4.57;;
48945;SDS011;34999;50.940;3.998;2022-09-12T09:32:42;4.30;;;3.97;;
48945;SDS011;34999;50.940;3.998;2022-09-12T09:35:16;4.10;;;3.70;;
48945;SDS011;34999;50.940;3.998;2022-09-12T09:37:54;5.83;;;3.83;;
48945;SDS011;34999;50.940;3.998;2022-09-12T09:40:31;4.30;;;4.00;;
48945;SDS011;34999;50.940;3.998;2022-09-12T09:43:10;4.33;;;3.97;;
48945;SDS011;34999;50.940;3.998;2022-09-12T09:45:48;5.43;;;4.27;;
48945;SDS011;34999;50.940;3.998;2022-09-12T09:48:17;5.67;;;3.70;;
48945;SDS011;34999;50.940;3.998;2022-09-12T09:50:47;5.93;;;3.60;;
48945;SDS011;34999;50.940;3.998;2022-09-12T09:53:23;4.23;;;3.40;;
48945;SDS011;34999;50.940;3.998;2022-09-12T09:55:56;5.50;;;3.53;;
48945;SDS011;34999;50.940;3.998;2022-09-12T09:58:29;5.63;;;3.73;;
48945;SDS011;34999;50.940;3.998;2022-09-12T10:00:59;5.47;;;3.77;;
48945;SDS011;34999;50.940;3.998;2022-09-12T10:03:29;4.90;;;3.63;;
48945;SDS011;34999;50.940;3.998;2022-09-12T10:06:00;8.60;;;3.70;;
48945;SDS011;34999;50.940;3.998;2022-09-12T10:08:34;5.23;;;3.83;;
48945;SDS011;34999;50.940;3.998;2022-09-12T10:11:05;3.70;;;3.40;;
48945;SDS011;34999;50.940;3.998;2022-09-12T10:13:42;4.00;;;3.60;;
48945;SDS011;34999;50.940;3.998;2022-09-12T10:16:20;5.07;;;3.40;;
48945;SDS011;34999;50.940;3.998;2022-09-12T10:18:51;6.40;;;3.77;;
48945;SDS011;34999;50.940;3.998;2022-09-12T10:21:26;3.73;;;3.30;;
48945;SDS011;34999;50.940;3.998;2022-09-12T10:24:11;4.20;;;3.80;;
48945;SDS011;34999;50.940;3.998;2022-09-12T10:26:50;3.70;;;3.38;;
48945;SDS011;34999;50.940;3.998;2022-09-12T10:29:23;4.05;;;2.97;;
48945;SDS011;34999;50.940;3.998;2022-09-12T10:31:56;2.70;;;2.50;;
48945;SDS011;34999;50.940;3.998;2022-09-12T10:34:27;3.95;;;2.88;;
48945;SDS011;34999;50.940;3.998;2022-09-12T10:37:02;2.97;;;2.67;;
48945;SDS011;34999;50.940;3.998;2022-09-12T10:39:34;3.15;;;2.90;;
48945;SDS011;34999;50.940;3.998;2022-09-12T10:42:05;2.80;;;2.60;;
48945;SDS011;34999;50.940;3.998;2022-09-12T10:44:33;4.60;;;2.58;;
48945;SDS011;34999;50.940;3.998;2022-09-12T10:49:47;2.80;;;2.60;;
48945;SDS011;34999;50.940;3.998;2022-09-12T10:52:17;2.28;;;2.17;;
48945;SDS011;34999;50.940;3.998;2022-09-12T10:54:50;4.03;;;2.30;;
48945;SDS011;34999;50.940;3.998;2022-09-12T10:57:22;2.58;;;2.38;;
48945;SDS011;34999;50.940;3.998;2022-09-12T11:00:13;2.55;;;2.35;;
48945;SDS011;34999;50.940;3.998;2022-09-12T11:02:47;2.47;;;2.20;;
48945;SDS011;34999;50.940;3.998;2022-09-12T11:05:21;3.80;;;2.42;;
48945;SDS011;34999;50.940;3.998;2022-09-12T11:08:11;3.25;;;3.05;;
48945;SDS011;34999;50.940;3.998;2022-09-12T11:10:53;4.95;;;2.35;;
48945;SDS011;34999;50.940;3.998;2022-09-12T11:13:31;3.45;;;2.60;;
48945;SDS011;34999;50.940;3.998;2022-09-12T11:16:13;5.38;;;2.30;;
48945;SDS011;34999;50.940;3.998;2022-09-12T11:18:54;3.17;;;2.40;;
48945;SDS011;34999;50.940;3.998;2022-09-12T11:21:43;2.75;;;2.60;;
48945;SDS011;34999;50.940;3.998;2022-09-12T11:24:33;2.70;;;2.50;;
48945;SDS011;34999;50.940;3.998;2022-09-12T11:27:29;2.30;;;2.20;;
48945;SDS011;34999;50.940;3.998;2022-09-12T11:30:07;5.05;;;2.50;;
48945;SDS011;34999;50.940;3.998;2022-09-12T11:32:43;2.60;;;2.50;;
48945;SDS011;34999;50.940;3.998;2022-09-12T11:35:31;2.10;;;2.10;;
48945;SDS011;34999;50.940;3.998;2022-09-12T11:41:07;2.20;;;2.10;;
48945;SDS011;34999;50.940;3.998;2022-09-12T11:43:44;4.13;;;2.28;;
48945;SDS011;34999;50.940;3.998;2022-09-12T11:46:18;2.20;;;2.00;;
48945;SDS011;34999;50.940;3.998;2022-09-12T11:48:51;1.95;;;1.85;;
48945;SDS011;34999;50.940;3.998;2022-09-12T11:51:24;2.30;;;2.20;;
48945;SDS011;34999;50.940;3.998;2022-09-12T11:54:01;2.10;;;2.00;;
48945;SDS011;34999;50.940;3.998;2022-09-12T11:56:36;2.20;;;2.10;;
48945;SDS011;34999;50.940;3.998;2022-09-12T11:59:11;1.77;;;1.77;;
48945;SDS011;34999;50.940;3.998;2022-09-12T12:01:50;2.00;;;1.90;;
48945;SDS011;34999;50.940;3.998;2022-09-12T12:04:26;2.72;;;2.10;;
48945;SDS011;34999;50.940;3.998;2022-09-12T12:07:03;2.47;;;2.08;;
48945;SDS011;34999;50.940;3.998;2022-09-12T12:09:33;3.90;;;2.05;;
48945;SDS011;34999;50.940;3.998;2022-09-12T12:12:02;2.30;;;2.20;;
48945;SDS011;34999;50.940;3.998;2022-09-12T12:14:36;2.08;;;1.90;;
48945;SDS011;34999;50.940;3.998;2022-09-12T12:17:13;2.58;;;2.38;;
48945;SDS011;34999;50.940;3.998;2022-09-12T12:19:42;1.83;;;1.80;;
48945;SDS011;34999;50.940;3.998;2022-09-12T12:22:16;1.80;;;1.80;;
48945;SDS011;34999;50.940;3.998;2022-09-12T12:25:03;2.10;;;1.92;;
48945;SDS011;34999;50.940;3.998;2022-09-12T12:27:45;1.67;;;1.67;;
48945;SDS011;34999;50.940;3.998;2022-09-12T12:36:29;2.22;;;2.13;;
48945;SDS011;34999;50.940;3.998;2022-09-12T12:48:30;2.87;;;2.07;;
48945;SDS011;34999;50.940;3.998;2022-09-12T12:51:16;2.20;;;2.10;;
48945;SDS011;34999;50.940;3.998;2022-09-12T12:54:23;2.10;;;2.00;;
48945;SDS011;34999;50.940;3.998;2022-09-12T12:57:27;2.00;;;1.90;;
48945;SDS011;34999;50.940;3.998;2022-09-12T13:00:24;4.50;;;1.67;;
48945;SDS011;34999;50.940;3.998;2022-09-12T13:03:00;1.80;;;1.80;;
48945;SDS011;34999;50.940;3.998;2022-09-12T13:05:40;2.67;;;1.90;;
48945;SDS011;34999;50.940;3.998;2022-09-12T13:08:25;3.90;;;2.00;;
48945;SDS011;34999;50.940;3.998;2022-09-12T13:10:58;2.50;;;1.90;;
48945;SDS011;34999;50.940;3.998;2022-09-12T13:13:36;2.67;;;2.43;;
48945;SDS011;34999;50.940;3.998;2022-09-12T13:16:08;1.90;;;1.83;;
48945;SDS011;34999;50.940;3.998;2022-09-12T13:18:41;2.30;;;1.90;;
48945;SDS011;34999;50.940;3.998;2022-09-12T13:21:12;2.50;;;2.30;;
48945;SDS011;34999;50.940;3.998;2022-09-12T13:23:45;3.90;;;2.20;;
48945;SDS011;34999;50.940;3.998;2022-09-12T13:26:26;4.00;;;2.30;;
48945;SDS011;34999;50.940;3.998;2022-09-12T13:29:08;1.93;;;1.83;;
48945;SDS011;34999;50.940;3.998;2022-09-12T13:31:42;2.23;;;2.10;;
48945;SDS011;34999;50.940;3.998;2022-09-12T13:34:14;3.33;;;2.07;;
48945;SDS011;34999;50.940;3.998;2022-09-12T13:36:52;2.57;;;1.90;;
48945;SDS011;34999;50.940;3.998;2022-09-12T13:39:36;2.30;;;2.20;;
48945;SDS011;34999;50.940;3.998;2022-09-12T13:45:10;2.00;;;1.90;;
48945;SDS011;34999;50.940;3.998;2022-09-12T13:47:41;2.73;;;1.93;;
48945;SDS011;34999;50.940;3.998;2022-09-12T13:50:13;2.20;;;1.50;;
48945;SDS011;34999;50.940;3.998;2022-09-12T13:52:45;2.13;;;2.03;;
48945;SDS011;34999;50.940;3.998;2022-09-12T13:55:22;1.70;;;1.60;;
48945;SDS011;34999;50.940;3.998;2022-09-12T13:57:56;1.90;;;1.90;;
48945;SDS011;34999;50.940;3.998;2022-09-12T14:00:27;2.10;;;2.00;;
48945;SDS011;34999;50.940;3.998;2022-09-12T14:02:58;2.77;;;2.10;;
48945;SDS011;34999;50.940;3.998;2022-09-12T14:05:45;2.17;;;1.97;;
48945;SDS011;34999;50.940;3.998;2022-09-12T14:08:21;1.93;;;1.80;;
48945;SDS011;34999;50.940;3.998;2022-09-12T14:10:52;2.30;;;1.90;;
48945;SDS011;34999;50.940;3.998;2022-09-12T14:13:21;1.90;;;1.80;;
48945;SDS011;34999;50.940;3.998;2022-09-12T14:15:52;1.70;;;1.60;;
48945;SDS011;34999;50.940;3.998;2022-09-12T14:18:23;3.27;;;1.80;;
48945;SDS011;34999;50.940;3.998;2022-09-12T14:20:53;1.73;;;1.73;;
48945;SDS011;34999;50.940;3.998;2022-09-12T14:23:26;2.03;;;1.53;;
48945;SDS011;34999;50.940;3.998;2022-09-12T14:25:59;3.37;;;1.50;;
48945;SDS011;34999;50.940;3.998;2022-09-12T14:28:31;1.70;;;1.57;;
48945;SDS011;34999;50.940;3.998;2022-09-12T14:31:01;1.63;;;1.53;;
48945;SDS011;34999;50.940;3.998;2022-09-12T14:33:32;1.70;;;1.60;;
48945;SDS011;34999;50.940;3.998;2022-09-12T14:36:16;1.47;;;1.40;;
48945;SDS011;34999;50.940;3.998;2022-09-12T14:38:48;1.83;;;1.73;;
48945;SDS011;34999;50.940;3.998;2022-09-12T14:41:24;1.57;;;1.50;;
48945;SDS011;34999;50.940;3.998;2022-09-12T14:43:56;1.70;;;1.60;;
48945;SDS011;34999;50.940;3.998;2022-09-12T14:46:27;2.00;;;1.50;;
48945;SDS011;34999;50.940;3.998;2022-09-12T14:49:01;1.58;;;1.58;;
48945;SDS011;34999;50.940;3.998;2022-09-12T14:55:18;1.40;;;1.40;;
48945;SDS011;34999;50.940;3.998;2022-09-12T15:01:48;1.50;;;1.40;;
48945;SDS011;34999;50.940;3.998;2022-09-12T15:07:29;1.75;;;1.60;;
48945;SDS011;34999;50.940;3.998;2022-09-12T15:10:00;2.53;;;1.40;;
48945;SDS011;34999;50.940;3.998;2022-09-12T15:12:32;1.67;;;1.50;;
48945;SDS011;34999;50.940;3.998;2022-09-12T15:15:05;3.17;;;1.53;;
48945;SDS011;34999;50.940;3.998;2022-09-12T15:17:41;1.43;;;1.43;;
48945;SDS011;34999;50.940;3.998;2022-09-12T15:26:42;1.30;;;1.30;;
48945;SDS011;34999;50.940;3.998;2022-09-12T15:29:13;1.67;;;1.60;;
48945;SDS011;34999;50.940;3.998;2022-09-12T15:31:44;1.53;;;1.50;;
48945;SDS011;34999;50.940;3.998;2022-09-12T15:37:22;1.55;;;1.50;;
48945;SDS011;34999;50.940;3.998;2022-09-12T15:43:23;1.60;;;1.50;;
48945;SDS011;34999;50.940;3.998;2022-09-12T15:45:51;1.85;;;1.40;;
48945;SDS011;34999;50.940;3.998;2022-09-12T15:48:20;2.63;;;1.50;;
48945;SDS011;34999;50.940;3.998;2022-09-12T15:50:50;1.95;;;1.50;;
48945;SDS011;34999;50.940;3.998;2022-09-12T15:53:22;1.40;;;1.35;;
48945;SDS011;34999;50.940;3.998;2022-09-12T15:55:51;1.60;;;1.60;;
48945;SDS011;34999;50.940;3.998;2022-09-12T16:01:25;1.63;;;1.60;;
48945;SDS011;34999;50.940;3.998;2022-09-12T16:04:18;2.10;;;1.80;;